Terminal Aerodrome Forecast
Issued by NWS

Home | Current Version | Previous Version | Text Only | Print | Product List | Glossary Off
Versions: 1 2 3 4 5 6 7 8 9 10 11 12

000
FTUS45 KGGW 171700
TAFGDV
TAF
KGDV 171722Z 1718/1818 12009KT P6SM BKN040
      TEMPO 1718/1720 BKN030
     FM172000 14014KT P6SM BKN060
     FM180100 14010KT P6SM BKN090
      AMD LTD TO CLD VIS AND WIND=

USA.gov is the U.S. government's official web portal to all federal, state and local government web resources and services.